Main page
METAR-TAF:

METAR-TAF

Airports :

Palma de Mallorca, Spain

Palma de Mallorca Airport

latitude: 39-33N, longitude: 002-44E, elevation: 4 m

Current weather observation

The report was made 36 minutes ago, at 05:30 UTC
Wind 1 kt from variable directions
Temperature 10°C
Humidity 100%
Pressure 1023 hPa
Visibility 10 km or more
Few clouds at a height of 3000 ft

METAR: LEPA 240530Z VRB01KT 9999 FEW030 10/10 Q1023 NOSIG

Time: 08:06 (06:06 UTC)

Forecast

The report was made 1 hour and 6 minutes ago, at 05:00 UTC
Forecast valid from 24 at 06 UTC to 25 at 06 UTC
Wind 3 kt from variable directions
Visibility 10 km or more
Few clouds at a height of 3000 ft
Temporary
from 24 at 11 UTC to 24 at 15 UTC
Wind 10 kt from the Southwest
Temporary
from 24 at 14 UTC to 24 at 18 UTC
Wind 8 kt from the Northwest
Becoming
from 24 at 18 UTC to 24 at 20 UTC
Wind 4 kt from the Northeast

TAF: LEPA 240500Z 2406/2506 VRB03KT 9999 FEW030 TX24/2413Z TN10/2406Z TEMPO 2411/2415 22010KT TEMPO 2414/2418 31008KT BECMG 2418/2420 05004KT

Weather observations and forecasts of more than 4000 airports (METAR and TAF reports).

The available stations are represented by yellow and red dots on the map.

Hover mouse over dot to see the name of the station.

Then click to see weather observations and forecasts.

To change the map : click on the green buttons with a black cross to zoom in, on the green button with a dash to zoom out, or on the green arrows for adjacent maps.


METAR-TAF: